Time;durP1;ratioP1;P1;durP2;ratioP2;P2;SDS_P1;SDS_P2;PMS_P1;PMS_P2;Temp;Humidity;BMP_temperature;BMP_pressure;BME280_temperature;BME280_humidity;BME280_pressure;Samples;Min_cycle;Max_cycle;Signal;HPM_P1;HPM_P2
2021/05/25 00:00:39;;;;;;;8.40;5.53;;;9.30;99.90;;;;;;4990611;29;20121;-86
2021/05/25 00:03:08;;;;;;;9.52;6.40;;;9.40;99.90;;;;;;4991591;29;20086;-86
2021/05/25 00:05:36;;;;;;;9.00;6.38;;;9.40;99.90;;;;;;4990938;29;20035;-86
2021/05/25 00:08:03;;;;;;;8.10;6.25;;;9.50;99.90;;;;;;4975429;29;20042;-87
2021/05/25 00:10:32;;;;;;;9.35;6.82;;;9.50;99.90;;;;;;4975449;29;20483;-87
2021/05/25 00:12:59;;;;;;;8.40;5.90;;;9.60;99.90;;;;;;4976232;29;20499;-87
2021/05/25 00:15:28;;;;;;;8.70;6.13;;;9.60;99.90;;;;;;4991342;29;20062;-87
2021/05/25 00:17:55;;;;;;;6.30;4.80;;;9.70;99.90;;;;;;4991236;29;20070;-87
2021/05/25 00:20:23;;;;;;;6.70;4.53;;;9.70;99.90;;;;;;4991739;28;20542;-86
2021/05/25 00:22:51;;;;;;;7.55;4.57;;;9.70;99.90;;;;;;4991281;29;20035;-86
2021/05/25 00:25:18;;;;;;;8.13;5.03;;;9.80;99.90;;;;;;4990945;29;20043;-86
2021/05/25 00:27:46;;;;;;;6.65;4.07;;;9.80;99.90;;;;;;4990790;29;20040;-86
2021/05/25 00:30:15;;;;;;;6.95;3.60;;;9.80;99.90;;;;;;4975203;29;20051;-87
2021/05/25 00:32:43;;;;;;;4.85;3.00;;;9.80;99.90;;;;;;4990579;29;20050;-88
2021/05/25 00:35:10;;;;;;;4.03;2.85;;;9.80;99.90;;;;;;4991232;29;20109;-87
2021/05/25 00:37:37;;;;;;;5.35;2.92;;;9.80;99.90;;;;;;4991054;29;20043;-88
2021/05/25 00:40:06;;;;;;;4.57;2.60;;;9.70;99.90;;;;;;4991598;29;20164;-88
2021/05/25 00:42:35;;;;;;;5.05;2.42;;;9.70;99.90;;;;;;4991026;29;20031;-88
2021/05/25 00:45:06;;;;;;;4.70;2.20;;;9.70;99.90;;;;;;4991085;29;20039;-88
2021/05/25 00:47:34;;;;;;;7.20;2.00;;;9.60;99.90;;;;;;4990839;29;20050;-87
2021/05/25 00:50:10;;;;;;;4.60;1.70;;;9.60;99.90;;;;;;4990601;29;20464;-86
2021/05/25 00:52:43;;;;;;;2.90;1.15;;;9.60;99.90;;;;;;4989717;29;20046;-86
2021/05/25 00:55:17;;;;;;;2.38;1.30;;;9.50;99.90;;;;;;4989913;29;20052;-86
2021/05/25 00:57:45;;;;;;;5.50;1.60;;;9.50;99.90;;;;;;4992504;28;20519;-88
2021/05/25 01:00:14;;;;;;;2.95;1.33;;;9.50;99.90;;;;;;4991738;28;20035;-86
2021/05/25 01:02:41;;;;;;;2.97;1.33;;;9.40;99.90;;;;;;4976214;28;20070;-87
2021/05/25 01:05:11;;;;;;;4.30;1.30;;;9.40;99.90;;;;;;4966328;29;20039;-87
2021/05/25 01:07:39;;;;;;;2.70;1.45;;;9.40;99.90;;;;;;4989786;29;20424;-87
2021/05/25 01:10:08;;;;;;;2.95;1.60;;;9.40;99.90;;;;;;5000388;28;20035;-87
2021/05/25 01:12:39;;;;;;;5.85;1.85;;;9.40;99.90;;;;;;4988767;28;20097;-86
2021/05/25 01:15:09;;;;;;;4.35;1.70;;;9.40;99.90;;;;;;4971499;28;20396;-86
2021/05/25 01:17:36;;;;;;;3.50;1.70;;;9.30;99.90;;;;;;4971688;28;20113;-86
2021/05/25 01:20:08;;;;;;;4.10;2.00;;;9.30;99.90;;;;;;4977345;28;20070;-86
2021/05/25 01:22:35;;;;;;;3.60;2.13;;;9.30;99.90;;;;;;4968056;29;20031;-86
2021/05/25 01:25:11;;;;;;;4.45;2.00;;;9.30;99.90;;;;;;4989274;28;20041;-86
2021/05/25 01:27:39;;;;;;;3.78;2.40;;;9.30;99.90;;;;;;4998562;28;20485;-86
2021/05/25 01:30:09;;;;;;;16.95;3.35;;;9.30;99.90;;;;;;4997730;28;20035;-85
2021/05/25 01:32:36;;;;;;;5.65;2.80;;;9.30;99.90;;;;;;4998643;28;20050;-85
2021/05/25 01:35:04;;;;;;;3.70;2.47;;;9.30;99.90;;;;;;4990732;28;20043;-85
2021/05/25 01:37:31;;;;;;;4.18;2.67;;;9.30;99.90;;;;;;4972909;29;20041;-85
2021/05/25 01:39:58;;;;;;;4.95;3.05;;;9.30;99.90;;;;;;4957374;29;20043;-85
2021/05/25 01:42:32;;;;;;;7.03;3.15;;;9.30;99.90;;;;;;4957577;29;20035;-85
2021/05/25 01:45:01;;;;;;;4.53;3.00;;;9.30;99.90;;;;;;4989241;29;20039;-85
2021/05/25 01:47:29;;;;;;;4.78;3.03;;;9.30;99.90;;;;;;4989705;29;20507;-86
2021/05/25 01:50:11;;;;;;;5.40;3.10;;;9.20;99.90;;;;;;4957546;29;20075;-85
2021/05/25 01:52:49;;;;;;;5.45;3.17;;;9.30;99.90;;;;;;4989143;29;20059;-85
2021/05/25 01:55:33;;;;;;;7.10;3.30;;;9.30;99.90;;;;;;4972859;29;20094;-85
2021/05/25 01:58:06;;;;;;;4.57;3.03;;;9.30;99.90;;;;;;4972977;29;20039;-84
2021/05/25 02:00:33;;;;;;;5.07;3.40;;;9.20;99.90;;;;;;4989667;29;20058;-85
2021/05/25 02:03:00;;;;;;;6.72;3.60;;;9.20;99.90;;;;;;4972876;29;20050;-85
2021/05/25 02:05:28;;;;;;;4.65;3.22;;;9.20;99.90;;;;;;4972990;29;20039;-85
2021/05/25 02:07:55;;;;;;;6.15;3.60;;;9.20;99.90;;;;;;4956748;29;20031;-85
2021/05/25 02:10:28;;;;;;;4.43;3.30;;;9.20;99.90;;;;;;4988326;29;20054;-85
2021/05/25 02:13:02;;;;;;;4.93;3.17;;;9.20;99.90;;;;;;4988063;29;20046;-86
2021/05/25 02:15:29;;;;;;;4.72;3.35;;;9.20;99.90;;;;;;4989902;29;20043;-86
2021/05/25 02:18:02;;;;;;;5.90;3.10;;;9.20;99.90;;;;;;4972658;29;20049;-86
2021/05/25 02:20:29;;;;;;;7.63;3.95;;;9.20;99.90;;;;;;4989826;29;20475;-85
2021/05/25 02:22:55;;;;;;;6.68;3.78;;;9.20;99.90;;;;;;4972214;29;20119;-85
2021/05/25 02:25:22;;;;;;;6.80;3.40;;;9.20;99.90;;;;;;4956835;29;20062;-85
2021/05/25 02:27:49;;;;;;;5.57;3.85;;;9.20;99.90;;;;;;4956378;29;20495;-85
2021/05/25 02:30:16;;;;;;;7.68;3.95;;;9.20;99.90;;;;;;4972285;29;20035;-85
2021/05/25 02:32:43;;;;;;;4.53;3.30;;;9.20;99.90;;;;;;4972233;29;20123;-85
2021/05/25 02:35:10;;;;;;;7.32;4.40;;;9.20;99.90;;;;;;4956785;29;20527;-85
2021/05/25 02:37:37;;;;;;;5.22;3.80;;;9.20;99.90;;;;;;4971834;29;20063;-85
2021/05/25 02:40:05;;;;;;;7.60;4.15;;;9.20;99.90;;;;;;4972558;29;20093;-85
2021/05/25 02:42:32;;;;;;;7.90;4.82;;;9.20;99.90;;;;;;4972619;28;20484;-86
2021/05/25 02:44:59;;;;;;;7.20;4.90;;;9.20;99.90;;;;;;4971342;29;20035;-85
2021/05/25 02:47:26;;;;;;;6.32;4.55;;;9.20;99.90;;;;;;4988054;29;20094;-85
2021/05/25 02:49:53;;;;;;;8.25;5.00;;;9.20;99.90;;;;;;4956135;29;20105;-85
2021/05/25 02:52:20;;;;;;;8.27;5.40;;;9.10;99.90;;;;;;4956356;29;20043;-84
2021/05/25 02:54:47;;;;;;;8.90;5.57;;;9.20;99.90;;;;;;4968112;29;20047;-85
2021/05/25 02:57:14;;;;;;;8.05;5.47;;;9.20;99.90;;;;;;4968977;29;20036;-85
2021/05/25 02:59:40;;;;;;;9.82;5.90;;;9.40;99.90;;;;;;4952714;29;20096;-85
2021/05/25 03:02:07;;;;;;;10.82;6.53;;;9.20;99.90;;;;;;4968829;29;20040;-85
2021/05/25 03:04:34;;;;;;;13.52;6.85;;;9.20;99.90;;;;;;4968829;29;20118;-85
2021/05/25 03:07:01;;;;;;;9.88;6.43;;;9.20;99.90;;;;;;4936906;29;20044;-85
2021/05/25 03:09:29;;;;;;;8.63;6.35;;;9.20;99.90;;;;;;4952831;29;20395;-85
2021/05/25 03:11:56;;;;;;;9.90;6.57;;;9.20;99.90;;;;;;4937374;29;20074;-85
2021/05/25 03:14:23;;;;;;;11.90;6.68;;;9.20;99.90;;;;;;4953047;29;20067;-85
2021/05/25 03:16:50;;;;;;;10.00;6.68;;;9.20;99.90;;;;;;4968278;29;20039;-85
2021/05/25 03:19:17;;;;;;;12.00;7.45;;;9.30;99.90;;;;;;4968474;29;20036;-85
2021/05/25 03:21:44;;;;;;;11.38;6.80;;;9.30;99.90;;;;;;4969878;29;20044;-84
2021/05/25 03:24:11;;;;;;;11.80;7.80;;;9.30;99.90;;;;;;4969472;29;20400;-85
2021/05/25 03:26:38;;;;;;;12.05;7.93;;;9.30;99.90;;;;;;4969352;29;20035;-86
2021/05/25 03:29:04;;;;;;;17.50;8.80;;;9.20;99.90;;;;;;4952843;29;20400;-85
2021/05/25 03:31:31;;;;;;;13.25;8.32;;;9.30;99.90;;;;;;4952840;29;20408;-85
2021/05/25 03:33:58;;;;;;;11.00;7.60;;;9.20;99.90;;;;;;4968204;29;20040;-85
2021/05/25 03:36:25;;;;;;;12.63;8.27;;;9.30;99.90;;;;;;4952459;29;20051;-85
2021/05/25 03:38:51;;;;;;;9.85;7.70;;;9.30;99.90;;;;;;4967836;29;20403;-85
2021/05/25 03:41:18;;;;;;;13.68;8.52;;;9.30;99.90;;;;;;4968155;29;20051;-85
2021/05/25 03:43:46;;;;;;;11.82;8.20;;;9.30;99.90;;;;;;4936457;29;20399;-85
2021/05/25 03:46:13;;;;;;;11.65;8.15;;;9.30;99.90;;;;;;4968199;29;20043;-85
2021/05/25 03:48:40;;;;;;;14.52;8.85;;;9.20;99.90;;;;;;4967785;29;20048;-84
2021/05/25 03:51:07;;;;;;;5.20;2.95;;;9.30;99.90;;;;;;4952080;29;20469;-85
2021/05/25 03:53:35;;;;;;;3.65;2.03;;;9.10;99.90;;;;;;4968021;29;20036;-85
2021/05/25 03:58:51;;;;;;;4.20;1.50;;;8.90;99.90;;;;;;4984115;29;20047;-84
2021/05/25 04:01:17;;;;;;;3.25;1.73;;;8.70;99.90;;;;;;4979652;28;20042;-84
2021/05/25 04:03:44;;;;;;;4.35;1.42;;;8.70;99.90;;;;;;4994157;28;20053;-84
2021/05/25 04:06:11;;;;;;;4.68;1.67;;;8.60;99.90;;;;;;4996906;28;20476;-84
2021/05/25 04:08:39;;;;;;;6.30;1.90;;;8.60;99.90;;;;;;4978022;28;20038;-84
2021/05/25 04:11:05;;;;;;;5.45;1.90;;;8.60;99.90;;;;;;4993610;28;20055;-84
2021/05/25 04:13:32;;;;;;;8.25;2.03;;;8.60;99.90;;;;;;4994465;28;20559;-85
2021/05/25 04:15:59;;;;;;;3.72;1.90;;;8.60;99.90;;;;;;4978131;28;20038;-85
2021/05/25 04:18:26;;;;;;;3.67;1.40;;;8.70;99.90;;;;;;4994471;28;20043;-85
2021/05/25 04:20:54;;;;;;;3.67;1.60;;;8.60;99.90;;;;;;4977906;28;20039;-84
2021/05/25 04:23:21;;;;;;;9.00;1.50;;;8.60;99.90;;;;;;5011753;28;20534;-85
2021/05/25 04:25:48;;;;;;;4.20;1.30;;;8.50;99.90;;;;;;4978064;28;20472;-84
2021/05/25 04:28:15;;;;;;;5.68;1.40;;;8.50;99.90;;;;;;4978033;28;20085;-84
2021/05/25 04:30:43;;;;;;;4.35;1.38;;;8.50;99.90;;;;;;4993934;28;20051;-84
2021/05/25 04:33:10;;;;;;;3.10;1.40;;;8.50;99.90;;;;;;4993987;28;20074;-85
2021/05/25 04:35:37;;;;;;;5.70;1.50;;;8.50;99.90;;;;;;4978270;28;20043;-85
2021/05/25 04:38:04;;;;;;;5.75;1.88;;;8.50;99.90;;;;;;4977769;28;20042;-85
2021/05/25 04:40:33;;;;;;;5.57;1.83;;;8.50;99.90;;;;;;4993796;28;20055;-85
2021/05/25 04:43:00;;;;;;;3.95;1.73;;;8.50;99.90;;;;;;4977410;28;20538;-84
2021/05/25 04:45:27;;;;;;;2.88;1.70;;;8.60;99.90;;;;;;4977925;28;20047;-85
2021/05/25 04:47:54;;;;;;;3.38;1.55;;;8.60;99.90;;;;;;4992944;28;20387;-85
2021/05/25 04:50:21;;;;;;;4.28;1.48;;;8.50;99.90;;;;;;4977580;28;20051;-85
2021/05/25 04:52:50;;;;;;;2.50;1.20;;;8.50;99.90;;;;;;4977454;28;20373;-86
2021/05/25 04:55:19;;;;;;;2.90;1.33;;;8.40;99.90;;;;;;4977139;28;20050;-85
2021/05/25 04:57:46;;;;;;;2.67;1.20;;;8.50;99.90;;;;;;4993544;28;20038;-85
2021/05/25 05:00:15;;;;;;;3.10;1.20;;;8.30;99.90;;;;;;4977084;28;20467;-85
2021/05/25 05:02:42;;;;;;;5.57;1.45;;;8.30;99.90;;;;;;4993239;28;20042;-85
2021/05/25 05:05:10;;;;;;;5.88;1.60;;;8.30;99.90;;;;;;4976929;28;20035;-85
2021/05/25 05:07:37;;;;;;;8.65;1.88;;;8.30;99.90;;;;;;4976650;28;20038;-85
2021/05/25 05:10:05;;;;;;;6.22;2.30;;;8.30;99.90;;;;;;4992908;28;20479;-85
2021/05/25 05:12:32;;;;;;;7.72;2.50;;;8.40;99.90;;;;;;4977592;28;20054;-86
2021/05/25 05:14:59;;;;;;;5.28;2.70;;;8.30;99.90;;;;;;4976940;28;20042;-85
2021/05/25 05:17:28;;;;;;;7.68;2.75;;;8.30;99.90;;;;;;4993084;28;20035;-85
2021/05/25 05:19:56;;;;;;;9.13;2.53;;;8.30;99.90;;;;;;4977385;28;20042;-85
2021/05/25 05:22:24;;;;;;;8.88;2.67;;;8.30;99.90;;;;;;5011180;28;20038;-86
2021/05/25 05:24:51;;;;;;;8.40;2.80;;;8.30;99.90;;;;;;4993669;28;20122;-86
2021/05/25 05:27:18;;;;;;;7.20;2.80;;;8.30;99.90;;;;;;4976819;28;20515;-85
2021/05/25 05:29:45;;;;;;;5.28;2.83;;;8.30;99.90;;;;;;4992766;28;20035;-86
2021/05/25 05:32:12;;;;;;;5.70;2.55;;;8.40;99.90;;;;;;4992170;28;20054;-84
2021/05/25 05:34:39;;;;;;;5.95;2.22;;;8.30;99.90;;;;;;4976747;28;20062;-85
2021/05/25 05:37:06;;;;;;;7.35;2.40;;;8.40;99.90;;;;;;4976661;28;20070;-85
2021/05/25 05:39:33;;;;;;;6.55;2.30;;;8.40;99.90;;;;;;4977144;28;20041;-85
2021/05/25 05:42:00;;;;;;;5.75;2.30;;;8.40;99.90;;;;;;4976854;28;20109;-85
2021/05/25 05:44:27;;;;;;;7.55;2.10;;;8.40;99.90;;;;;;4992918;28;20046;-85
2021/05/25 05:46:53;;;;;;;8.15;2.40;;;8.30;99.90;;;;;;4992615;28;20038;-85
2021/05/25 05:49:22;;;;;;;6.15;2.20;;;8.40;99.90;;;;;;4976254;28;20042;-85
2021/05/25 05:51:50;;;;;;;6.30;2.50;;;8.30;99.90;;;;;;4976693;28;20035;-85
2021/05/25 05:54:18;;;;;;;6.82;2.60;;;8.40;99.90;;;;;;4976071;28;20066;-85
2021/05/25 05:56:47;;;;;;;4.38;2.00;;;8.40;99.90;;;;;;4976579;28;20041;-85
2021/05/25 05:59:15;;;;;;;6.47;2.42;;;8.40;99.90;;;;;;4974981;28;20066;-84
2021/05/25 06:01:42;;;;;;;6.00;2.50;;;8.50;99.90;;;;;;4979267;28;20046;-84
2021/05/25 06:04:09;;;;;;;6.93;2.67;;;8.50;99.90;;;;;;4960367;28;20399;-85
2021/05/25 06:06:36;;;;;;;7.28;2.42;;;8.60;99.90;;;;;;4961456;28;20050;-84
2021/05/25 06:09:03;;;;;;;6.13;2.45;;;8.60;99.90;;;;;;4957752;28;20039;-85
2021/05/25 06:11:30;;;;;;;6.45;2.55;;;8.70;99.90;;;;;;4996298;28;20043;-84
2021/05/25 06:13:58;;;;;;;9.20;2.72;;;8.90;99.90;;;;;;4977086;28;20031;-85
2021/05/25 06:16:25;;;;;;;5.80;2.45;;;8.90;99.90;;;;;;5008792;28;20069;-85
2021/05/25 06:18:52;;;;;;;7.55;2.70;;;8.80;99.90;;;;;;4972577;29;20066;-85
2021/05/25 06:21:18;;;;;;;8.02;2.78;;;8.80;99.90;;;;;;4979270;28;20039;-85
2021/05/25 06:23:45;;;;;;;7.38;2.40;;;8.80;99.90;;;;;;4992063;28;20035;-85
2021/05/25 06:26:12;;;;;;;5.90;2.45;;;8.80;99.90;;;;;;4981863;28;20410;-85
2021/05/25 06:28:39;;;;;;;5.97;2.42;;;8.90;99.90;;;;;;4976213;28;20435;-85
2021/05/25 06:31:05;;;;;;;5.53;2.40;;;8.80;99.90;;;;;;4960021;28;20479;-84
2021/05/25 06:33:32;;;;;;;7.75;2.60;;;8.80;99.90;;;;;;4976468;28;20039;-83
2021/05/25 06:35:59;;;;;;;7.35;2.40;;;8.90;99.90;;;;;;4961032;28;20035;-86
2021/05/25 06:38:26;;;;;;;5.60;2.55;;;8.90;99.90;;;;;;4976565;28;20054;-92
2021/05/25 06:40:53;;;;;;;5.00;2.25;;;8.90;99.90;;;;;;4976718;28;20498;-86
2021/05/25 06:43:20;;;;;;;8.95;2.42;;;8.90;99.90;;;;;;4976193;28;20395;-87
2021/05/25 06:45:46;;;;;;;3.92;1.90;;;9.00;99.90;;;;;;4960451;28;20090;-86
2021/05/25 06:48:14;;;;;;;5.13;1.77;;;9.00;99.90;;;;;;4959861;28;20039;-85
2021/05/25 06:50:40;;;;;;;5.07;1.42;;;9.00;99.90;;;;;;4991809;28;20045;-86
2021/05/25 06:53:10;;;;;;;5.65;1.65;;;9.00;99.90;;;;;;4975638;28;20038;-86
2021/05/25 06:55:37;;;;;;;4.05;1.45;;;9.00;99.90;;;;;;4975523;28;20058;-86
2021/05/25 06:58:04;;;;;;;4.78;1.50;;;9.20;99.90;;;;;;4975416;28;20114;-85
2021/05/25 07:00:31;;;;;;;5.65;1.42;;;9.20;99.90;;;;;;4954025;29;20055;-86
2021/05/25 07:02:58;;;;;;;6.55;1.60;;;9.20;99.90;;;;;;4976574;29;20035;-86
2021/05/25 07:05:25;;;;;;;3.42;1.50;;;9.20;99.90;;;;;;4972166;29;20047;-86
2021/05/25 07:07:52;;;;;;;4.32;1.38;;;9.30;99.90;;;;;;4988129;28;20062;-86
2021/05/25 07:10:19;;;;;;;4.25;1.33;;;9.40;99.90;;;;;;4987704;29;20073;-86
2021/05/25 07:12:46;;;;;;;3.38;1.40;;;9.40;99.90;;;;;;4983413;28;20039;-88
2021/05/25 07:15:13;;;;;;;3.90;1.45;;;9.50;99.90;;;;;;4959472;28;20159;-86
2021/05/25 07:17:47;;;;;;;2.60;1.30;;;9.50;99.90;;;;;;4975778;28;20042;-85
2021/05/25 07:20:14;;;;;;;4.75;1.40;;;9.60;99.90;;;;;;4975330;28;20462;-85
2021/05/25 07:22:41;;;;;;;4.15;1.60;;;9.60;99.90;;;;;;4975973;28;20395;-86
2021/05/25 07:25:08;;;;;;;3.95;1.50;;;9.70;99.90;;;;;;4975316;28;20053;-89
2021/05/25 07:27:36;;;;;;;6.25;1.20;;;9.80;99.90;;;;;;4991513;28;20043;-86
2021/05/25 07:30:04;;;;;;;2.15;1.20;;;9.70;99.90;;;;;;4990563;28;20042;-86
2021/05/25 07:32:31;;;;;;;3.92;1.40;;;9.70;99.90;;;;;;4991511;29;20035;-85
2021/05/25 07:34:57;;;;;;;6.10;2.00;;;9.70;99.90;;;;;;4994172;28;20039;-85
2021/05/25 07:37:24;;;;;;;5.00;1.85;;;9.70;99.90;;;;;;4963036;28;20066;-85
2021/05/25 07:39:51;;;;;;;6.07;1.90;;;9.70;99.90;;;;;;4959302;29;20407;-85
2021/05/25 07:42:18;;;;;;;5.20;1.60;;;9.80;99.90;;;;;;4987363;28;20545;-85
2021/05/25 07:44:45;;;;;;;5.40;1.60;;;9.90;99.90;;;;;;4978892;28;20061;-85
2021/05/25 07:47:12;;;;;;;6.75;1.75;;;9.90;99.90;;;;;;4978677;28;20043;-85
2021/05/25 07:49:38;;;;;;;4.05;1.42;;;10.00;99.90;;;;;;4976328;28;20093;-85
2021/05/25 07:52:05;;;;;;;3.40;1.20;;;9.80;99.90;;;;;;4986995;28;20070;-85
2021/05/25 07:54:32;;;;;;;4.40;1.70;;;9.90;99.90;;;;;;4994527;28;20050;-87
2021/05/25 07:57:00;;;;;;;4.00;1.42;;;9.90;99.90;;;;;;4995528;28;20070;-86
2021/05/25 07:59:27;;;;;;;3.88;1.33;;;9.90;99.90;;;;;;4996888;28;20039;-88
2021/05/25 08:01:55;;;;;;;2.60;1.20;;;9.90;99.90;;;;;;5001656;28;20051;-86
2021/05/25 08:04:22;;;;;;;2.85;1.20;;;9.90;99.90;;;;;;4994738;28;20097;-86
2021/05/25 08:06:49;;;;;;;3.20;1.17;;;9.90;99.90;;;;;;4992835;28;20089;-86
2021/05/25 08:09:16;;;;;;;1.75;0.93;;;10.00;99.90;;;;;;5000496;28;20035;-87
2021/05/25 08:11:43;;;;;;;2.90;1.20;;;10.00;99.90;;;;;;5016015;28;20038;-89
2021/05/25 08:14:11;;;;;;;2.20;1.30;;;10.00;99.90;;;;;;4994370;28;20042;-87
2021/05/25 08:16:40;;;;;;;2.22;1.17;;;10.10;99.90;;;;;;4994930;28;20042;-85
2021/05/25 08:21:35;;;;;;;3.53;1.20;;;10.10;99.90;;;;;;5011475;28;20045;-91
2021/05/25 08:24:02;;;;;;;3.72;1.20;;;10.10;99.90;;;;;;4995157;28;20049;-88
2021/05/25 08:26:31;;;;;;;3.05;1.15;;;10.20;99.90;;;;;;4995154;28;20039;-91
2021/05/25 08:28:58;;;;;;;3.72;1.20;;;10.20;99.90;;;;;;4979440;28;20070;-90
2021/05/25 08:31:26;;;;;;;2.40;1.30;;;10.30;99.90;;;;;;4979016;28;20113;-91
2021/05/25 08:33:53;;;;;;;2.40;1.25;;;10.40;99.90;;;;;;4995865;28;20041;-91
2021/05/25 08:36:20;;;;;;;3.78;1.40;;;10.30;99.90;;;;;;4979114;28;20035;-90
2021/05/25 08:38:47;;;;;;;3.90;1.27;;;10.50;99.90;;;;;;4995214;28;20049;-89
2021/05/25 08:41:14;;;;;;;3.05;1.60;;;10.60;99.90;;;;;;4995652;28;20042;-89
2021/05/25 08:43:41;;;;;;;4.28;1.45;;;10.60;99.90;;;;;;4963123;28;20467;-90
2021/05/25 08:46:16;;;;;;;2.90;1.50;;;10.70;99.90;;;;;;4975382;29;20114;-93
2021/05/25 08:48:43;;;;;;;5.10;1.30;;;10.70;99.90;;;;;;4986338;29;20478;-90
2021/05/25 08:51:12;;;;;;;2.58;1.20;;;10.70;99.90;;;;;;4987541;28;20058;-90
2021/05/25 08:53:40;;;;;;;2.72;1.38;;;10.60;99.90;;;;;;4964734;28;20054;-90
2021/05/25 08:56:07;;;;;;;8.90;1.50;;;10.70;99.90;;;;;;4981634;28;20043;-90
2021/05/25 08:58:34;;;;;;;2.72;1.08;;;10.70;99.90;;;;;;4979441;28;20053;-90
2021/05/25 09:01:01;;;;;;;2.30;1.00;;;10.60;99.90;;;;;;5021345;28;20046;-90
2021/05/25 09:03:30;;;;;;;2.55;1.08;;;10.70;99.90;;;;;;5004129;28;20034;-90
2021/05/25 09:06:07;;;;;;;2.17;1.08;;;10.80;99.90;;;;;;4963053;28;20047;-90
2021/05/25 09:08:35;;;;;;;2.90;1.30;;;10.60;99.90;;;;;;4979780;28;20062;-91
2021/05/25 09:11:09;;;;;;;2.60;1.42;;;10.40;99.90;;;;;;4971497;28;20142;-89
2021/05/25 09:13:36;;;;;;;2.90;1.60;;;10.40;99.90;;;;;;4983541;28;20058;-90
2021/05/25 09:16:08;;;;;;;2.75;1.50;;;10.50;99.90;;;;;;4994811;28;20038;-90
2021/05/25 09:18:45;;;;;;;3.40;1.80;;;10.50;99.90;;;;;;4994119;28;20031;-90
2021/05/25 09:21:28;;;;;;;3.67;1.83;;;10.40;99.90;;;;;;4994685;28;20097;-88
2021/05/25 09:23:55;;;;;;;2.88;1.52;;;10.40;99.90;;;;;;4994306;28;20059;-87
2021/05/25 09:26:34;;;;;;;3.17;1.58;;;10.60;99.90;;;;;;4980188;28;20042;-87
2021/05/25 09:29:02;;;;;;;2.70;1.40;;;10.70;99.90;;;;;;4994385;28;20035;-88
2021/05/25 09:31:35;;;;;;;4.32;1.80;;;10.70;99.90;;;;;;4993247;28;20042;-87
2021/05/25 09:34:17;;;;;;;3.45;1.30;;;10.60;99.90;;;;;;5010867;28;20054;-88
2021/05/25 09:37:09;;;;;;;5.00;1.23;;;10.40;99.90;;;;;;4992629;28;20042;-77
2021/05/25 09:39:35;;;;;;;5.53;1.73;;;10.30;99.90;;;;;;4992909;28;20130;-88
2021/05/25 09:42:12;;;;;;;3.70;1.10;;;10.30;99.90;;;;;;4994239;28;20074;-86
2021/05/25 09:45:00;;;;;;;4.63;1.05;;;10.20;99.90;;;;;;4993593;28;20074;-88
2021/05/25 09:47:34;;;;;;;3.88;1.33;;;10.20;99.90;;;;;;4976790;28;20531;-89
2021/05/25 09:50:02;;;;;;;4.30;1.43;;;10.10;99.90;;;;;;4977418;28;20054;-90
2021/05/25 09:52:29;;;;;;;2.90;1.25;;;10.00;99.90;;;;;;4977217;28;20298;-88
2021/05/25 09:55:10;;;;;;;5.88;1.40;;;10.10;99.90;;;;;;4993153;28;20057;-87
2021/05/25 09:57:45;;;;;;;5.13;1.20;;;10.20;99.90;;;;;;4993647;28;20038;-87
2021/05/25 10:00:23;;;;;;;;;;;10.10;99.90;;;;;;4994136;28;20074;-89
2021/05/25 10:03:15;;;;;;;3.35;1.00;;;10.00;99.90;;;;;;4994240;28;19922;-86
2021/05/25 10:05:48;;;;;;;3.33;1.20;;;9.90;99.90;;;;;;5004131;28;20415;-88
2021/05/25 10:08:16;;;;;;;1.60;0.90;;;9.90;99.90;;;;;;4992848;28;20038;-87
2021/05/25 10:10:44;;;;;;;2.15;1.00;;;9.70;99.90;;;;;;4976414;28;20121;-86
2021/05/25 10:13:12;;;;;;;2.58;1.15;;;9.50;99.90;;;;;;4990142;28;20054;-88
2021/05/25 10:15:41;;;;;;;2.85;1.17;;;9.50;99.90;;;;;;4992092;28;20093;-86
2021/05/25 10:20:35;;;;;;;3.83;1.05;;;9.30;99.90;;;;;;4991150;28;20106;-86
2021/05/25 10:23:02;;;;;;;2.47;1.05;;;9.30;99.90;;;;;;4989036;29;20043;-87
2021/05/25 10:25:34;;;;;;;3.65;1.20;;;9.30;99.90;;;;;;4996766;28;20069;-86
2021/05/25 10:28:10;;;;;;;2.08;1.17;;;9.40;99.90;;;;;;4988805;29;20044;-85
2021/05/25 10:30:44;;;;;;;2.65;1.13;;;9.50;99.90;;;;;;4972588;29;20047;-85
2021/05/25 10:33:20;;;;;;;3.83;1.20;;;9.60;99.90;;;;;;5005383;28;20042;-86
2021/05/25 10:35:50;;;;;;;2.60;1.05;;;9.60;99.90;;;;;;4992214;28;20047;-86
2021/05/25 10:38:27;;;;;;;2.15;0.90;;;9.60;99.90;;;;;;4991750;28;20463;-85
2021/05/25 10:40:57;;;;;;;3.05;0.93;;;9.60;99.90;;;;;;4992092;28;20119;-85
2021/05/25 10:43:39;;;;;;;1.08;0.70;;;9.60;99.90;;;;;;4991244;28;20035;-87
2021/05/25 10:46:12;;;;;;;3.15;0.80;;;9.50;99.90;;;;;;4992043;28;20041;-85
2021/05/25 10:49:01;;;;;;;2.42;0.73;;;9.40;99.90;;;;;;4991940;28;20493;-85
2021/05/25 10:54:23;;;;;;;3.05;0.85;;;9.30;99.90;;;;;;5009280;28;20046;-86
2021/05/25 10:56:51;;;;;;;1.02;0.60;;;9.20;99.90;;;;;;4959632;28;20121;-88
2021/05/25 10:59:19;;;;;;;5.63;0.68;;;9.30;99.90;;;;;;4960725;28;20038;-89
2021/05/25 11:01:57;;;;;;;1.52;0.80;;;9.30;99.90;;;;;;4956711;29;20055;-87
2021/05/25 11:04:36;;;;;;;2.38;0.90;;;9.30;99.90;;;;;;4971928;29;20055;-88
2021/05/25 11:07:38;;;;;;;2.78;1.00;;;9.30;99.90;;;;;;4988781;29;20110;-86
2021/05/25 11:10:26;;;;;;;2.17;0.90;;;9.40;99.90;;;;;;4981791;28;20118;-87
2021/05/25 11:13:15;;;;;;;1.73;0.80;;;9.40;99.90;;;;;;4972547;29;20087;-87
2021/05/25 11:21:21;;;;;;;2.15;1.00;;;9.60;99.90;;;;;;4989400;29;20047;-85
2021/05/25 11:23:52;;;;;;;3.00;1.20;;;9.60;99.90;;;;;;4987543;29;20059;-85
2021/05/25 11:26:59;;;;;;;3.53;0.90;;;9.70;99.90;;;;;;4972711;29;20047;-85
2021/05/25 11:29:28;;;;;;;2.17;1.10;;;9.80;99.90;;;;;;4987062;28;20480;-85
2021/05/25 11:31:58;;;;;;;2.67;0.80;;;9.80;99.90;;;;;;4991294;28;20706;-86
2021/05/25 11:34:27;;;;;;;2.58;1.10;;;9.70;99.90;;;;;;4991613;28;20067;-86
2021/05/25 11:37:00;;;;;;;3.10;1.00;;;9.70;99.90;;;;;;4993186;28;20035;-86
2021/05/25 11:39:29;;;;;;;2.60;1.10;;;9.70;99.90;;;;;;5010565;28;20030;-86
2021/05/25 11:41:57;;;;;;;2.72;1.00;;;9.60;99.90;;;;;;4994738;28;20046;-86
2021/05/25 11:44:54;;;;;;;2.88;1.30;;;9.60;99.90;;;;;;4995308;28;20386;-86
2021/05/25 11:47:22;;;;;;;4.05;1.30;;;9.60;99.90;;;;;;4978977;29;20074;-87
2021/05/25 11:49:49;;;;;;;2.88;1.27;;;9.70;99.90;;;;;;5007228;28;20081;-88
2021/05/25 11:52:23;;;;;;;3.10;1.00;;;9.80;99.90;;;;;;4984865;28;20050;-87
2021/05/25 11:54:53;;;;;;;2.85;1.02;;;9.80;99.90;;;;;;4991302;28;20093;-88
2021/05/25 11:57:43;;;;;;;4.30;1.25;;;9.90;99.90;;;;;;5007989;28;20403;-89
2021/05/25 12:00:15;;;;;;;2.72;1.02;;;10.00;99.90;;;;;;5008171;28;20043;-89
2021/05/25 12:02:48;;;;;;;2.97;1.45;;;10.00;99.90;;;;;;4987294;29;20716;-86
2021/05/25 12:05:42;;;;;;;4.32;1.50;;;10.00;99.90;;;;;;5008921;28;20100;-86
2021/05/25 12:08:10;;;;;;;3.33;1.25;;;10.20;99.90;;;;;;4982296;28;20125;-86
2021/05/25 12:10:42;;;;;;;3.13;1.40;;;10.10;99.90;;;;;;4990967;28;20054;-88
2021/05/25 12:13:20;;;;;;;3.20;1.50;;;10.10;99.90;;;;;;4975916;28;20035;-89
2021/05/25 12:15:49;;;;;;;2.97;1.55;;;10.10;99.90;;;;;;4997502;28;20046;-88
2021/05/25 12:18:21;;;;;;;3.95;1.35;;;10.20;99.90;;;;;;4995202;28;20043;-86
2021/05/25 12:20:54;;;;;;;4.47;1.40;;;10.30;99.90;;;;;;4994687;28;20131;-87
2021/05/25 12:23:25;;;;;;;4.57;1.40;;;10.20;99.90;;;;;;5011164;28;20074;-87
2021/05/25 12:25:54;;;;;;;4.00;1.45;;;10.30;99.90;;;;;;4995178;28;20543;-91
2021/05/25 12:28:29;;;;;;;4.40;1.50;;;10.20;99.90;;;;;;4991906;29;20039;-86
2021/05/25 12:30:57;;;;;;;2.92;1.30;;;10.20;99.90;;;;;;5009612;28;20053;-87
2021/05/25 12:33:32;;;;;;;3.95;1.33;;;10.20;99.90;;;;;;5031370;28;20105;-86
2021/05/25 12:36:15;;;;;;;3.40;1.50;;;10.20;99.90;;;;;;5014517;28;20077;-89
2021/05/25 12:38:53;;;;;;;3.45;1.38;;;10.20;99.90;;;;;;5014765;28;20065;-89
2021/05/25 12:41:19;;;;;;;3.47;1.70;;;10.20;99.90;;;;;;4994864;28;20042;-86
2021/05/25 12:43:46;;;;;;;4.03;1.50;;;10.30;99.90;;;;;;4992971;28;20123;-86
2021/05/25 12:46:14;;;;;;;4.45;1.92;;;10.40;99.90;;;;;;4978386;28;20039;-85
2021/05/25 12:48:43;;;;;;;4.18;2.00;;;10.50;99.90;;;;;;5014051;28;20072;-86
2021/05/25 12:51:11;;;;;;;3.95;1.73;;;10.80;99.90;;;;;;5013190;28;20042;-86
2021/05/25 12:53:55;;;;;;;4.82;2.10;;;11.10;99.90;;;;;;4997853;28;20394;-86
2021/05/25 12:56:23;;;;;;;5.18;1.90;;;11.20;99.90;;;;;;4978550;29;20079;-86
2021/05/25 12:58:57;;;;;;;4.40;2.08;;;11.30;99.90;;;;;;4990128;29;20042;-86
2021/05/25 13:01:45;;;;;;;3.58;1.50;;;11.40;99.90;;;;;;4974892;29;20043;-86
2021/05/25 13:04:12;;;;;;;7.15;1.85;;;11.40;99.90;;;;;;4990622;29;20071;-85
2021/05/25 13:06:54;;;;;;;3.28;1.58;;;11.50;99.90;;;;;;4974165;29;20082;-85
2021/05/25 13:09:40;;;;;;;2.92;1.42;;;12.00;99.90;;;;;;4974615;29;20043;-84
2021/05/25 13:12:11;;;;;;;3.00;1.20;;;11.50;99.90;;;;;;4990560;29;20039;-84
2021/05/25 13:14:41;;;;;;;3.25;1.45;;;11.60;99.90;;;;;;5002759;28;20093;-84
2021/05/25 13:17:13;;;;;;;4.25;1.98;;;11.60;99.90;;;;;;4994449;28;20381;-85
2021/05/25 13:19:49;;;;;;;4.18;1.85;;;11.60;99.90;;;;;;5010361;28;20039;-84
2021/05/25 13:22:21;;;;;;;3.33;1.60;;;11.50;99.90;;;;;;5009808;28;20462;-85
2021/05/25 13:25:01;;;;;;;3.13;1.50;;;11.20;99.90;;;;;;5010520;28;20069;-85